createdAt,value
2019-02-23T00:01:23.752Z,4.67
2019-02-23T00:03:55.961Z,5.50
2019-02-23T00:06:30.078Z,4.77
2019-02-23T00:09:02.276Z,4.97
2019-02-23T00:11:34.621Z,5.20
2019-02-23T00:14:07.347Z,4.97
2019-02-23T00:16:39.676Z,5.37
2019-02-23T00:19:12.000Z,5.03
2019-02-23T00:21:44.184Z,4.33
2019-02-23T00:24:16.478Z,5.20
2019-02-23T00:26:49.168Z,5.10
2019-02-23T00:29:21.537Z,4.97
2019-02-23T00:31:54.137Z,4.70
2019-02-23T00:34:26.379Z,5.27
2019-02-23T00:36:58.589Z,4.53
2019-02-23T00:39:31.017Z,5.60
2019-02-23T00:42:03.330Z,5.20
2019-02-23T00:44:35.845Z,5.07
2019-02-23T00:47:07.965Z,4.97
2019-02-23T00:49:40.160Z,5.53
2019-02-23T00:52:12.382Z,5.00
2019-02-23T00:54:44.685Z,5.27
2019-02-23T00:57:17.042Z,4.73
2019-02-23T00:59:49.148Z,5.40
2019-02-23T01:02:21.420Z,5.43
2019-02-23T01:04:53.737Z,5.67
2019-02-23T01:07:26.264Z,5.17
2019-02-23T01:09:58.431Z,4.87
2019-02-23T01:12:30.679Z,5.33
2019-02-23T01:15:03.333Z,4.40
2019-02-23T01:17:35.589Z,5.27
2019-02-23T01:20:09.358Z,4.60
2019-02-23T01:22:42.028Z,5.37
2019-02-23T01:25:14.728Z,5.20
2019-02-23T01:27:46.979Z,5.10
2019-02-23T01:30:19.410Z,4.80
2019-02-23T01:32:51.797Z,5.00
2019-02-23T01:35:24.398Z,4.73
2019-02-23T01:37:56.883Z,5.13
2019-02-23T01:40:29.448Z,4.50
2019-02-23T01:43:01.648Z,5.43
2019-02-23T01:45:42.046Z,4.80
2019-02-23T01:48:07.852Z,5.10
2019-02-23T01:50:40.234Z,4.77
2019-02-23T01:53:12.684Z,4.77
2019-02-23T01:55:44.768Z,5.37
2019-02-23T01:58:17.042Z,5.23
2019-02-23T02:00:49.354Z,5.30
2019-02-23T02:03:22.398Z,5.67
2019-02-23T02:05:54.787Z,5.33
2019-02-23T02:08:27.202Z,5.70
2019-02-23T02:10:59.542Z,5.70
2019-02-23T02:13:31.665Z,5.57
2019-02-23T02:16:03.945Z,5.73
2019-02-23T02:18:36.215Z,4.63
2019-02-23T02:21:08.342Z,5.47
2019-02-23T02:23:40.723Z,5.33
2019-02-23T02:26:12.797Z,5.40
2019-02-23T02:28:45.046Z,4.90
2019-02-23T02:31:17.273Z,5.63
2019-02-23T02:34:06.778Z,5.67
2019-02-23T02:36:39.052Z,5.13
2019-02-23T02:39:12.258Z,6.53
2019-02-23T02:41:46.154Z,6.20
2019-02-23T02:44:18.469Z,5.57
2019-02-23T02:46:50.613Z,6.27
2019-02-23T02:49:22.983Z,5.80
2019-02-23T02:51:55.270Z,5.43
2019-02-23T02:54:27.660Z,5.90
2019-02-23T02:56:59.797Z,5.43
2019-02-23T02:59:32.278Z,6.10
2019-02-23T03:02:04.717Z,6.33
2019-02-23T03:04:37.037Z,6.53
2019-02-23T03:07:09.403Z,5.87
2019-02-23T03:09:41.783Z,6.40
2019-02-23T03:12:14.322Z,6.00
2019-02-23T03:14:46.426Z,6.57
2019-02-23T03:17:18.561Z,6.43
2019-02-23T03:19:51.004Z,6.67
2019-02-23T03:22:23.251Z,6.90
2019-02-23T03:24:55.672Z,6.83
2019-02-23T03:27:28.009Z,6.90
2019-02-23T03:30:00.411Z,6.73
2019-02-23T03:32:32.752Z,6.60
2019-02-23T03:35:05.050Z,7.33
2019-02-23T03:37:37.678Z,6.50
2019-02-23T03:40:09.980Z,6.97
2019-02-23T03:42:42.446Z,6.70
2019-02-23T03:45:14.719Z,7.83
2019-02-23T03:47:47.127Z,6.90
2019-02-23T03:50:19.439Z,7.33
2019-02-23T03:52:51.965Z,7.03
2019-02-23T03:55:24.314Z,7.60
2019-02-23T03:57:56.795Z,7.20
2019-02-23T04:00:28.989Z,6.90
2019-02-23T04:03:01.298Z,6.73
2019-02-23T04:05:33.629Z,7.23
2019-02-23T04:08:06.073Z,7.97
2019-02-23T04:10:38.220Z,7.83
2019-02-23T04:13:10.591Z,7.23
2019-02-23T04:15:42.863Z,6.77
2019-02-23T04:18:15.252Z,7.33
2019-02-23T04:20:47.511Z,7.67
2019-02-23T04:23:19.769Z,7.83
2019-02-23T04:25:52.253Z,7.10
2019-02-23T04:28:24.612Z,7.20
2019-02-23T04:30:57.070Z,8.40
2019-02-23T04:33:29.440Z,7.47
2019-02-23T04:36:01.799Z,8.17
2019-02-23T04:38:33.907Z,7.33
2019-02-23T04:41:06.185Z,7.40
2019-02-23T04:43:39.723Z,7.50
2019-02-23T04:46:11.805Z,7.30
2019-02-23T04:48:43.948Z,7.70
2019-02-23T04:51:16.654Z,7.43
2019-02-23T04:53:48.791Z,7.57
2019-02-23T04:56:21.164Z,7.70
2019-02-23T04:58:53.495Z,7.17
2019-02-23T05:01:25.661Z,8.17
2019-02-23T05:03:57.918Z,7.20
2019-02-23T05:06:30.005Z,7.80
2019-02-23T05:09:04.265Z,7.23
2019-02-23T05:11:36.648Z,7.40
2019-02-23T05:14:08.785Z,7.00
2019-02-23T05:16:40.865Z,7.03
2019-02-23T05:19:13.001Z,8.20
2019-02-23T05:21:45.123Z,7.30
2019-02-23T05:24:17.646Z,7.17
2019-02-23T05:26:50.288Z,8.17
2019-02-23T05:29:22.528Z,7.63
2019-02-23T05:31:55.190Z,7.70
2019-02-23T05:34:27.303Z,7.57
2019-02-23T05:37:00.177Z,7.63
2019-02-23T05:39:32.382Z,6.60
2019-02-23T05:42:05.015Z,8.07
2019-02-23T05:44:37.706Z,8.23
2019-02-23T05:47:10.209Z,8.30
2019-02-23T05:49:42.973Z,7.60
2019-02-23T05:52:17.357Z,7.37
2019-02-23T05:54:49.882Z,7.87
2019-02-23T05:57:22.078Z,7.90
2019-02-23T05:59:54.689Z,7.73
2019-02-23T06:02:26.889Z,8.30
2019-02-23T06:04:59.223Z,8.00
2019-02-23T06:07:31.703Z,7.83
2019-02-23T06:10:05.607Z,8.20
2019-02-23T06:12:37.815Z,7.83
2019-02-23T06:15:11.271Z,8.40
2019-02-23T06:17:43.557Z,7.73
2019-02-23T06:20:16.077Z,8.50
2019-02-23T06:22:48.463Z,8.63
2019-02-23T06:25:20.585Z,7.93
2019-02-23T06:27:52.833Z,7.73
2019-02-23T06:30:25.094Z,7.70
2019-02-23T06:32:59.326Z,8.83
2019-02-23T06:35:31.645Z,8.43
2019-02-23T06:38:04.121Z,8.23
2019-02-23T06:40:36.283Z,8.33
2019-02-23T06:43:08.398Z,7.87
2019-02-23T06:45:41.254Z,9.07
2019-02-23T06:48:13.557Z,8.70
2019-02-23T06:50:46.205Z,9.33
2019-02-23T06:53:18.801Z,7.77
2019-02-23T06:55:51.178Z,8.73
2019-02-23T06:58:23.820Z,9.20
2019-02-23T07:00:56.180Z,9.00
2019-02-23T07:03:28.494Z,8.67
2019-02-23T07:06:00.731Z,9.43
2019-02-23T07:08:33.518Z,10.03
2019-02-23T07:11:06.338Z,9.13
2019-02-23T07:13:38.883Z,10.00
2019-02-23T07:16:11.105Z,9.63
2019-02-23T07:18:44.032Z,10.53
2019-02-23T07:21:16.699Z,8.63
2019-02-23T07:23:48.795Z,9.27
2019-02-23T07:26:21.262Z,9.73
2019-02-23T07:28:53.542Z,9.40
2019-02-23T07:31:25.789Z,8.83
2019-02-23T07:33:58.355Z,9.70
2019-02-23T07:36:30.852Z,8.77
2019-02-23T07:39:04.809Z,9.23
2019-02-23T07:41:38.461Z,8.40
2019-02-23T07:44:10.705Z,9.30
2019-02-23T07:46:42.825Z,8.80
2019-02-23T07:49:15.771Z,9.60
2019-02-23T07:51:48.074Z,8.87
2019-02-23T07:54:20.274Z,9.37
2019-02-23T07:56:52.469Z,8.37
2019-02-23T07:59:24.873Z,9.17
2019-02-23T08:01:57.134Z,8.47
2019-02-23T08:04:29.858Z,9.73
2019-02-23T08:07:02.074Z,9.63
2019-02-23T08:09:34.342Z,8.53
2019-02-23T08:12:06.714Z,8.47
2019-02-23T08:14:38.956Z,9.20
2019-02-23T08:17:11.061Z,8.87
2019-02-23T08:19:43.742Z,8.67
2019-02-23T08:22:16.391Z,9.20
2019-02-23T08:24:48.669Z,9.30
2019-02-23T08:27:20.812Z,8.80
2019-02-23T08:29:53.114Z,8.50
2019-02-23T08:32:25.557Z,9.20
2019-02-23T08:34:58.131Z,9.20
2019-02-23T08:37:30.257Z,8.70
2019-02-23T08:40:02.741Z,8.57
2019-02-23T08:42:34.970Z,8.97
2019-02-23T08:45:07.882Z,8.80
2019-02-23T08:47:40.477Z,8.67
2019-02-23T08:50:12.794Z,9.30
2019-02-23T08:52:49.187Z,9.27
2019-02-23T08:55:18.987Z,9.10
2019-02-23T08:57:51.260Z,8.13
2019-02-23T09:00:23.514Z,8.00
2019-02-23T09:02:55.977Z,7.30
2019-02-23T09:05:28.174Z,8.33
2019-02-23T09:08:00.303Z,7.73
2019-02-23T09:10:32.807Z,7.53
2019-02-23T09:13:05.339Z,7.83
2019-02-23T09:15:37.638Z,7.90
2019-02-23T09:18:09.885Z,7.93
2019-02-23T09:20:42.493Z,7.70
2019-02-23T09:23:14.870Z,8.27
2019-02-23T09:25:47.013Z,7.87
2019-02-23T09:28:19.334Z,7.83
2019-02-23T09:30:51.682Z,7.13
2019-02-23T09:33:23.902Z,7.30
2019-02-23T09:35:56.152Z,8.17
2019-02-23T09:38:28.682Z,7.87
2019-02-23T09:41:01.234Z,7.80
2019-02-23T09:43:33.402Z,8.07
2019-02-23T09:46:05.660Z,7.17
2019-02-23T09:48:38.218Z,7.70
2019-02-23T09:51:10.882Z,8.27
2019-02-23T09:53:43.498Z,8.47
2019-02-23T09:56:16.048Z,7.33
2019-02-23T09:58:48.349Z,6.77
2019-02-23T10:01:20.793Z,7.20
2019-02-23T10:03:53.125Z,6.97
2019-02-23T10:06:25.357Z,7.30
2019-02-23T10:08:57.590Z,6.33
2019-02-23T10:11:30.004Z,7.07
2019-02-23T10:14:02.653Z,7.50
2019-02-23T10:16:35.312Z,8.73
2019-02-23T10:19:07.511Z,7.63
2019-02-23T10:21:39.679Z,7.33
2019-02-23T10:24:11.859Z,6.93
2019-02-23T10:26:44.134Z,7.53
2019-02-23T10:29:16.453Z,8.50
2019-02-23T10:31:48.958Z,7.57
2019-02-23T10:34:21.230Z,7.07
2019-02-23T10:36:53.535Z,6.63
2019-02-23T10:39:26.150Z,6.40
2019-02-23T10:41:58.932Z,6.27
2019-02-23T10:44:31.434Z,7.07
2019-02-23T10:47:04.264Z,6.03
2019-02-23T10:49:36.493Z,6.83
2019-02-23T10:52:09.032Z,5.90
2019-02-23T10:54:41.351Z,5.97
2019-02-23T10:57:13.909Z,6.03
2019-02-23T10:59:46.305Z,6.10
2019-02-23T11:02:19.403Z,5.80
2019-02-23T11:04:51.788Z,5.10
2019-02-23T11:07:24.304Z,5.17
2019-02-23T11:09:56.434Z,5.00
2019-02-23T11:12:29.165Z,4.97
2019-02-23T11:15:01.472Z,5.03
2019-02-23T11:17:34.319Z,5.30
2019-02-23T11:20:07.214Z,4.97
2019-02-23T11:22:39.714Z,5.80
2019-02-23T11:25:12.077Z,5.00
2019-02-23T11:27:44.439Z,5.30
2019-02-23T11:30:16.738Z,4.47
2019-02-23T11:32:49.082Z,4.93
2019-02-23T11:35:21.685Z,4.73
2019-02-23T11:37:54.301Z,4.97
2019-02-23T11:40:26.390Z,4.93
2019-02-23T11:42:58.666Z,5.80
2019-02-23T11:45:31.156Z,5.10
2019-02-23T11:48:03.857Z,5.03
2019-02-23T11:50:36.097Z,4.70
2019-02-23T11:53:09.295Z,4.80
2019-02-23T11:55:41.566Z,5.10
2019-02-23T11:58:13.894Z,5.37
2019-02-23T12:00:46.095Z,5.23
2019-02-23T12:03:18.873Z,5.47
2019-02-23T12:05:51.706Z,5.13
2019-02-23T12:08:24.302Z,6.73
2019-02-23T12:10:56.491Z,6.73
2019-02-23T12:13:28.730Z,8.50
2019-02-23T12:16:01.163Z,16.97
2019-02-23T12:18:33.589Z,6.80
2019-02-23T12:21:06.166Z,5.87
2019-02-23T12:23:38.980Z,5.43
2019-02-23T12:26:11.216Z,5.27
2019-02-23T12:28:43.955Z,5.07
2019-02-23T12:31:16.166Z,4.90
2019-02-23T12:33:48.789Z,5.20
2019-02-23T12:36:21.010Z,5.40
2019-02-23T12:38:53.236Z,5.40
2019-02-23T12:41:25.785Z,5.57
2019-02-23T12:43:58.157Z,5.77
2019-02-23T12:46:30.509Z,6.20
2019-02-23T12:49:02.829Z,5.67
2019-02-23T12:51:35.008Z,6.40
2019-02-23T12:54:16.350Z,6.27
2019-02-23T12:56:41.351Z,6.10
2019-02-23T12:59:13.919Z,7.10
2019-02-23T13:01:46.330Z,5.73
2019-02-23T13:04:18.646Z,6.40
2019-02-23T13:06:50.918Z,6.10
2019-02-23T13:09:29.109Z,5.87
2019-02-23T13:12:39.275Z,5.77
2019-02-23T13:15:15.985Z,4.63
2019-02-23T13:18:18.361Z,5.03
2019-02-23T13:21:19.776Z,5.53
2019-02-23T13:24:55.062Z,4.80
2019-02-23T13:28:17.290Z,4.77
2019-02-23T13:31:14.920Z,5.27
2019-02-23T13:34:23.120Z,4.97
2019-02-23T13:37:20.612Z,4.73
2019-02-23T13:39:57.866Z,4.10
2019-02-23T13:43:04.147Z,4.50
2019-02-23T13:46:10.428Z,4.57
2019-02-23T13:49:24.822Z,4.60
2019-02-23T13:52:20.747Z,5.00
2019-02-23T13:55:40.030Z,5.30
2019-02-23T13:58:43.297Z,4.83
2019-02-23T14:02:03.007Z,6.53
2019-02-23T14:05:07.971Z,5.83
2019-02-23T14:08:10.283Z,6.37
2019-02-23T14:11:24.400Z,5.77
2019-02-23T14:14:14.606Z,4.67
2019-02-23T14:17:13.070Z,4.83
2019-02-23T14:20:37.766Z,5.67
2019-02-23T14:23:33.401Z,5.83
2019-02-23T14:26:43.458Z,5.80
2019-02-23T14:29:53.564Z,5.47
2019-02-23T14:33:18.403Z,5.63
2019-02-23T14:36:15.929Z,5.23
2019-02-23T14:39:59.467Z,5.30
2019-02-23T14:42:47.935Z,4.70
2019-02-23T14:45:53.591Z,5.17
2019-02-23T14:49:16.751Z,5.63
2019-02-23T14:52:15.558Z,6.87
2019-02-23T14:55:05.243Z,7.87
2019-02-23T14:58:18.069Z,11.03
2019-02-23T15:01:31.299Z,13.50
2019-02-23T15:04:44.209Z,8.17
2019-02-23T15:07:39.428Z,6.07
2019-02-23T15:11:01.265Z,5.57
2019-02-23T15:14:08.415Z,5.47
2019-02-23T15:17:23.914Z,5.63
2019-02-23T15:20:17.028Z,5.50
2019-02-23T15:23:13.422Z,6.03
2019-02-23T15:26:39.977Z,5.30
2019-02-23T15:29:47.593Z,5.57
2019-02-23T15:32:51.805Z,5.70
2019-02-23T15:35:46.343Z,5.30
2019-02-23T15:39:18.742Z,6.17
2019-02-23T15:42:14.964Z,7.03
2019-02-23T15:45:09.490Z,8.23
2019-02-23T15:48:30.200Z,7.90
2019-02-23T15:51:02.783Z,10.90
2019-02-23T15:53:35.884Z,12.23
2019-02-23T15:56:08.188Z,9.33
2019-02-23T15:58:40.377Z,10.23
2019-02-23T16:01:12.827Z,9.17
2019-02-23T16:03:44.959Z,8.10
2019-02-23T16:06:17.490Z,7.30
2019-02-23T16:08:49.711Z,7.03
2019-02-23T16:11:22.082Z,7.63
2019-02-23T16:13:54.327Z,10.90
2019-02-23T16:16:26.720Z,8.27
2019-02-23T16:18:58.944Z,8.47
2019-02-23T16:21:31.589Z,7.43
2019-02-23T16:24:03.913Z,7.70
2019-02-23T16:26:36.349Z,6.43
2019-02-23T16:29:08.505Z,8.27
2019-02-23T16:31:40.829Z,8.67
2019-02-23T16:34:13.039Z,9.00
2019-02-23T16:36:45.546Z,8.73
2019-02-23T16:39:17.859Z,8.03
2019-02-23T16:41:50.429Z,7.53
2019-02-23T16:44:23.189Z,8.37
2019-02-23T16:46:55.553Z,7.47
2019-02-23T16:49:27.729Z,8.83
2019-02-23T16:52:00.282Z,8.63
2019-02-23T16:54:32.862Z,7.43
2019-02-23T16:57:05.157Z,7.97
2019-02-23T16:59:37.189Z,8.13
2019-02-23T17:02:09.539Z,8.17
2019-02-23T17:04:53.196Z,8.80
2019-02-23T17:07:16.317Z,8.77
2019-02-23T17:09:48.427Z,9.00
2019-02-23T17:12:20.634Z,9.10
2019-02-23T17:14:53.294Z,9.10
2019-02-23T17:17:25.478Z,8.77
2019-02-23T17:19:57.823Z,8.53
2019-02-23T17:22:30.129Z,8.47
2019-02-23T17:25:02.454Z,9.93
2019-02-23T17:27:36.485Z,11.00
2019-02-23T17:30:08.935Z,11.87
2019-02-23T17:32:41.338Z,11.47
2019-02-23T17:35:13.650Z,11.07
2019-02-23T17:37:46.198Z,9.13
2019-02-23T17:40:18.440Z,11.03
2019-02-23T17:42:50.786Z,12.93
2019-02-23T17:45:23.033Z,12.47
2019-02-23T17:47:55.918Z,10.93
2019-02-23T17:50:28.554Z,11.90
2019-02-23T17:53:01.171Z,11.67
2019-02-23T17:55:33.674Z,9.27
2019-02-23T17:58:06.026Z,12.20
2019-02-23T18:00:38.390Z,10.93
2019-02-23T18:03:10.849Z,11.67
2019-02-23T18:05:43.133Z,8.47
2019-02-23T18:08:15.218Z,8.20
2019-02-23T18:10:47.457Z,8.73
2019-02-23T18:13:19.559Z,8.03
2019-02-23T18:15:52.061Z,8.73
2019-02-23T18:18:24.758Z,8.77
2019-02-23T18:20:57.021Z,9.07
2019-02-23T18:23:29.257Z,10.07
2019-02-23T18:26:01.677Z,10.17
2019-02-23T18:28:33.930Z,9.73
2019-02-23T18:31:06.326Z,8.97
2019-02-23T18:33:38.741Z,9.43
2019-02-23T18:36:11.090Z,8.83
2019-02-23T18:38:43.314Z,8.40
2019-02-23T18:41:15.602Z,9.20
2019-02-23T18:43:47.978Z,9.13
2019-02-23T18:46:20.290Z,8.93
2019-02-23T18:48:52.746Z,8.27
2019-02-23T18:51:25.325Z,9.50
2019-02-23T18:53:57.697Z,9.50
2019-02-23T18:56:29.984Z,10.10
2019-02-23T18:59:02.876Z,9.60
2019-02-23T19:01:35.137Z,9.70
2019-02-23T19:04:07.410Z,9.13
2019-02-23T19:06:39.908Z,9.17
2019-02-23T19:09:12.360Z,9.83
2019-02-23T19:11:44.529Z,9.70
2019-02-23T19:14:16.869Z,10.60
2019-02-23T19:16:49.394Z,10.40
2019-02-23T19:19:21.711Z,9.97
2019-02-23T19:21:53.929Z,10.43
2019-02-23T19:24:26.321Z,11.70
2019-02-23T19:26:58.620Z,10.33
2019-02-23T19:29:30.977Z,9.73
2019-02-23T19:32:03.337Z,10.97
2019-02-23T19:34:35.942Z,12.83
2019-02-23T19:37:08.266Z,15.63
2019-02-23T19:39:40.501Z,13.47
2019-02-23T19:42:12.905Z,11.67
2019-02-23T19:44:45.384Z,12.13
2019-02-23T19:47:20.779Z,10.80
2019-02-23T19:49:56.662Z,10.33
2019-02-23T19:52:28.850Z,13.40
2019-02-23T19:55:00.941Z,14.67
2019-02-23T19:57:33.458Z,14.67
2019-02-23T20:00:05.878Z,14.43
2019-02-23T20:02:38.285Z,10.03
2019-02-23T20:05:10.642Z,11.00
2019-02-23T20:07:42.994Z,9.63
2019-02-23T20:10:15.394Z,8.60
2019-02-23T20:12:50.470Z,9.17
2019-02-23T20:15:22.790Z,13.57
2019-02-23T20:17:58.612Z,14.83
2019-02-23T20:20:31.143Z,17.63
2019-02-23T20:23:03.804Z,17.93
2019-02-23T20:25:35.997Z,16.10
2019-02-23T20:28:08.307Z,20.07
2019-02-23T20:30:40.725Z,20.63
2019-02-23T20:33:12.963Z,20.97
2019-02-23T20:35:45.641Z,17.77
2019-02-23T20:38:17.769Z,15.27
2019-02-23T20:40:50.132Z,14.00
2019-02-23T20:43:22.502Z,12.67
2019-02-23T20:45:54.773Z,12.43
2019-02-23T20:48:27.309Z,11.80
2019-02-23T20:50:59.778Z,12.33
2019-02-23T20:53:32.437Z,11.70
2019-02-23T20:56:04.728Z,11.43
2019-02-23T20:58:36.816Z,11.13
2019-02-23T21:01:08.974Z,11.40
2019-02-23T21:03:41.452Z,9.80
2019-02-23T21:06:13.821Z,10.50
2019-02-23T21:08:46.154Z,11.53
2019-02-23T21:11:18.701Z,11.33
2019-02-23T21:13:51.722Z,11.87
2019-02-23T21:16:24.392Z,11.03
2019-02-23T21:18:56.595Z,10.70
2019-02-23T21:21:29.182Z,11.17
2019-02-23T21:24:01.512Z,10.33
2019-02-23T21:26:33.780Z,10.03
2019-02-23T21:29:06.071Z,10.70
2019-02-23T21:31:38.641Z,10.13
2019-02-23T21:34:12.282Z,10.40
2019-02-23T21:36:44.716Z,9.60
2019-02-23T21:39:16.970Z,9.37
2019-02-23T21:41:49.506Z,9.23
2019-02-23T21:44:22.146Z,10.30
2019-02-23T21:46:54.269Z,10.07
2019-02-23T21:49:26.688Z,9.97
2019-02-23T21:51:58.901Z,9.67
2019-02-23T21:54:31.467Z,9.87
2019-02-23T21:57:04.136Z,9.43
2019-02-23T21:59:36.642Z,9.17
2019-02-23T22:02:08.775Z,9.50
2019-02-23T22:04:41.003Z,9.13
2019-02-23T22:07:13.408Z,9.53
2019-02-23T22:09:45.938Z,10.13
2019-02-23T22:12:18.048Z,9.53
2019-02-23T22:14:50.378Z,11.50
2019-02-23T22:17:22.978Z,11.23
2019-02-23T22:19:55.216Z,10.43
2019-02-23T22:22:27.445Z,13.77
2019-02-23T22:24:59.938Z,17.47
2019-02-23T22:27:32.179Z,18.87
2019-02-23T22:30:04.645Z,19.17
2019-02-23T22:32:36.756Z,20.70
2019-02-23T22:35:09.819Z,23.53
2019-02-23T22:37:42.149Z,22.23
2019-02-23T22:40:14.362Z,21.93
2019-02-23T22:42:46.930Z,19.37
2019-02-23T22:45:19.260Z,17.63
2019-02-23T22:47:51.422Z,14.87
2019-02-23T22:50:23.724Z,13.57
2019-02-23T22:52:55.941Z,12.43
2019-02-23T22:55:28.187Z,9.50
2019-02-23T22:58:00.754Z,9.67
2019-02-23T23:00:50.865Z,10.63
2019-02-23T23:03:23.202Z,9.67
2019-02-23T23:05:55.428Z,9.20
2019-02-23T23:08:27.937Z,8.87
2019-02-23T23:11:00.432Z,9.17
2019-02-23T23:13:32.688Z,9.60
2019-02-23T23:16:05.189Z,9.23
2019-02-23T23:18:38.014Z,9.37
2019-02-23T23:21:10.227Z,9.57
2019-02-23T23:23:42.650Z,8.60
2019-02-23T23:26:15.061Z,8.47
2019-02-23T23:28:47.305Z,8.67
2019-02-23T23:31:19.762Z,8.90
2019-02-23T23:33:52.099Z,8.30
2019-02-23T23:36:24.318Z,7.97
2019-02-23T23:38:57.226Z,9.23
2019-02-23T23:41:29.440Z,8.53
2019-02-23T23:44:01.784Z,9.77
2019-02-23T23:46:33.985Z,8.40
2019-02-23T23:49:06.518Z,8.43
2019-02-23T23:51:38.714Z,9.17
2019-02-23T23:54:10.894Z,9.20
2019-02-23T23:56:43.264Z,9.97
2019-02-23T23:59:15.499Z,9.57
